createdAt,value
2023-05-05T00:00:27.732Z,23.0476
2023-05-05T00:01:28.839Z,23.0422
2023-05-05T00:02:30.051Z,23.1244
2023-05-05T00:03:31.134Z,23.1749
2023-05-05T00:04:32.163Z,23.1090
2023-05-05T00:05:33.282Z,23.1437
2023-05-05T00:06:34.386Z,23.1267
2023-05-05T00:07:35.522Z,23.1102
2023-05-05T00:08:36.591Z,23.0704
2023-05-05T00:09:37.717Z,23.1143
2023-05-05T00:10:38.805Z,23.1137
2023-05-05T00:11:39.920Z,23.0164
2023-05-05T00:12:41.053Z,22.9605
2023-05-05T00:13:42.151Z,22.9108
2023-05-05T00:14:43.231Z,22.9387
2023-05-05T00:15:44.340Z,23.0122
2023-05-05T00:16:45.457Z,23.0455
2023-05-05T00:17:46.630Z,23.0591
2023-05-05T00:18:47.658Z,22.9761
2023-05-05T00:19:48.755Z,22.9621
2023-05-05T00:20:49.883Z,22.9652
2023-05-05T00:21:50.957Z,22.9514
2023-05-05T00:22:52.075Z,22.9362
2023-05-05T00:23:53.181Z,22.9291
2023-05-05T00:24:54.291Z,22.9083
2023-05-05T00:25:55.380Z,22.8798
2023-05-05T00:26:56.494Z,22.8629
2023-05-05T00:27:57.604Z,22.8175
2023-05-05T00:28:58.711Z,22.8621
2023-05-05T00:29:59.815Z,22.8769
2023-05-05T00:31:00.957Z,22.9502
2023-05-05T00:32:02.037Z,22.9486
2023-05-05T00:33:03.217Z,22.9116
2023-05-05T00:34:04.252Z,22.8547
2023-05-05T00:35:05.327Z,22.8194
2023-05-05T00:36:06.407Z,22.8512
2023-05-05T00:37:07.520Z,22.9044
2023-05-05T00:38:08.638Z,22.8978
2023-05-05T00:39:09.705Z,22.9558
2023-05-05T00:40:10.796Z,22.9588
2023-05-05T00:41:11.905Z,22.8976
2023-05-05T00:42:13.022Z,22.8869
2023-05-05T00:43:14.093Z,22.8703
2023-05-05T00:44:15.188Z,22.8563
2023-05-05T00:45:16.291Z,22.9471
2023-05-05T00:46:17.410Z,23.0309
2023-05-05T00:47:18.469Z,22.9966
2023-05-05T00:48:19.592Z,22.9784
2023-05-05T00:49:20.703Z,23.0466
2023-05-05T00:50:21.773Z,23.0270
2023-05-05T00:51:22.841Z,23.0379
2023-05-05T00:52:23.930Z,23.0122
2023-05-05T00:53:25.234Z,23.0311
2023-05-05T00:54:26.124Z,23.0615
2023-05-05T00:55:27.225Z,23.0468
2023-05-05T00:56:28.311Z,23.0552
2023-05-05T00:57:29.394Z,23.0796
2023-05-05T00:58:30.494Z,23.0595
2023-05-05T00:59:31.582Z,23.0539
2023-05-05T01:00:32.696Z,23.0141
2023-05-05T01:01:33.799Z,23.0260
2023-05-05T01:02:34.944Z,23.0026
2023-05-05T01:03:36.080Z,22.9590
2023-05-05T01:04:37.093Z,22.9652
2023-05-05T01:05:38.167Z,23.0254
2023-05-05T01:06:39.255Z,23.0981
2023-05-05T01:07:40.358Z,23.1873
2023-05-05T01:08:41.496Z,23.2199
2023-05-05T01:09:42.535Z,23.1949
2023-05-05T01:10:43.643Z,23.1158
2023-05-05T01:11:44.764Z,23.1059
2023-05-05T01:12:45.863Z,23.1443
2023-05-05T01:13:46.967Z,23.1345
2023-05-05T01:14:48.020Z,23.1014
2023-05-05T01:15:49.118Z,23.0776
2023-05-05T01:16:50.213Z,23.0806
2023-05-05T01:17:51.319Z,23.1421
2023-05-05T01:18:52.420Z,23.1698
2023-05-05T01:19:53.505Z,23.1667
2023-05-05T01:20:54.585Z,23.1386
2023-05-05T01:21:55.686Z,23.0866
2023-05-05T01:22:56.800Z,23.0948
2023-05-05T01:23:57.877Z,23.1234
2023-05-05T01:24:58.989Z,23.1135
2023-05-05T01:26:00.097Z,23.0192
2023-05-05T01:27:01.168Z,22.9942
2023-05-05T01:28:02.275Z,23.0246
2023-05-05T01:29:03.403Z,23.0484
2023-05-05T01:30:04.477Z,23.0669
2023-05-05T01:31:05.578Z,23.0279
2023-05-05T01:32:06.656Z,23.0186
2023-05-05T01:33:07.744Z,23.0049
2023-05-05T01:34:08.865Z,23.0585
2023-05-05T01:35:09.957Z,23.0552
2023-05-05T01:36:11.021Z,23.0942
2023-05-05T01:37:12.139Z,23.1043
2023-05-05T01:38:13.231Z,23.1170
2023-05-05T01:39:14.333Z,23.1090
2023-05-05T01:40:15.424Z,23.0254
2023-05-05T01:41:16.525Z,23.0819
2023-05-05T01:42:17.609Z,23.0913
2023-05-05T01:43:18.694Z,23.1406
2023-05-05T01:44:19.790Z,23.0823
2023-05-05T01:45:20.889Z,23.0484
2023-05-05T01:46:22.031Z,23.0098
2023-05-05T01:47:23.089Z,22.9469
2023-05-05T01:48:24.209Z,22.9334
2023-05-05T01:49:25.298Z,22.9841
2023-05-05T01:50:26.372Z,23.0131
2023-05-05T01:51:27.481Z,23.0083
2023-05-05T01:52:28.576Z,23.0307
2023-05-05T01:53:29.681Z,23.0630
2023-05-05T01:54:30.780Z,23.0730
2023-05-05T01:55:31.876Z,22.9794
2023-05-05T01:56:32.981Z,22.9087
2023-05-05T01:57:34.046Z,22.9547
2023-05-05T01:58:35.145Z,22.9504
2023-05-05T01:59:36.248Z,22.9494
2023-05-05T02:00:37.357Z,22.9944
2023-05-05T02:01:38.541Z,23.0075
2023-05-05T02:02:39.614Z,23.0671
2023-05-05T02:03:40.637Z,23.0096
2023-05-05T02:04:41.754Z,22.9970
2023-05-05T02:05:50.379Z,22.9749
2023-05-05T02:06:43.937Z,23.0057
2023-05-05T02:07:45.050Z,23.0694
2023-05-05T02:08:46.265Z,23.0971
2023-05-05T02:09:47.323Z,23.0511
2023-05-05T02:10:48.456Z,23.0299
2023-05-05T02:11:49.510Z,23.0009
2023-05-05T02:12:50.611Z,23.0414
2023-05-05T02:13:51.820Z,23.0390
2023-05-05T02:14:52.800Z,23.0235
2023-05-05T02:15:53.887Z,23.0940
2023-05-05T02:16:54.981Z,23.1343
2023-05-05T02:17:56.097Z,23.1441
2023-05-05T02:18:57.206Z,23.1468
2023-05-05T02:19:58.285Z,23.1355
2023-05-05T02:20:59.368Z,23.0821
2023-05-05T02:22:00.452Z,23.0735
2023-05-05T02:23:01.542Z,23.0474
2023-05-05T02:24:02.660Z,22.9773
2023-05-05T02:25:03.747Z,22.9909
2023-05-05T02:26:04.839Z,23.0492
2023-05-05T02:27:05.935Z,23.0975
2023-05-05T02:28:07.026Z,23.0895
2023-05-05T02:29:08.141Z,23.0712
2023-05-05T02:30:09.395Z,23.0418
2023-05-05T02:31:10.362Z,23.0691
2023-05-05T02:32:11.410Z,23.0938
2023-05-05T02:33:12.501Z,23.1367
2023-05-05T02:34:13.592Z,23.1667
2023-05-05T02:35:14.700Z,23.1236
2023-05-05T02:36:15.766Z,23.0714
2023-05-05T02:37:16.860Z,23.0248
2023-05-05T02:38:17.960Z,23.0681
2023-05-05T02:39:19.035Z,23.0626
2023-05-05T02:40:20.201Z,23.0917
2023-05-05T02:41:21.245Z,23.0184
2023-05-05T02:42:22.317Z,22.9773
2023-05-05T02:43:23.460Z,23.0291
2023-05-05T02:44:24.519Z,22.9841
2023-05-05T02:45:25.624Z,22.9451
2023-05-05T02:46:26.714Z,22.9323
2023-05-05T02:47:27.840Z,22.8639
2023-05-05T02:48:28.913Z,22.9227
2023-05-05T02:49:29.986Z,22.9188
2023-05-05T02:50:31.085Z,22.8040
2023-05-05T02:51:32.150Z,22.7284
2023-05-05T02:52:33.247Z,22.7892
2023-05-05T02:53:34.352Z,22.8446
2023-05-05T02:54:35.447Z,22.8851
2023-05-05T02:55:36.692Z,22.9194
2023-05-05T02:56:37.614Z,22.9015
2023-05-05T02:57:38.701Z,22.8282
2023-05-05T02:58:39.818Z,22.7877
2023-05-05T02:59:40.889Z,22.8169
2023-05-05T03:00:41.987Z,22.8245
2023-05-05T03:01:43.102Z,22.8882
2023-05-05T03:02:44.234Z,22.8779
2023-05-05T03:03:45.367Z,22.8350
2023-05-05T03:04:46.365Z,22.8915
2023-05-05T03:05:47.513Z,22.8999
2023-05-05T03:06:48.540Z,22.8937
2023-05-05T03:07:49.637Z,22.8931
2023-05-05T03:08:50.728Z,22.9243
2023-05-05T03:09:51.835Z,22.9346
2023-05-05T03:10:52.921Z,22.9788
2023-05-05T03:11:54.021Z,23.0012
2023-05-05T03:12:55.180Z,23.0131
2023-05-05T03:13:56.204Z,23.0238
2023-05-05T03:14:57.309Z,23.0032
2023-05-05T03:15:58.423Z,23.0131
2023-05-05T03:16:59.506Z,23.0009
2023-05-05T03:18:00.634Z,22.9163
2023-05-05T03:19:01.690Z,22.9122
2023-05-05T03:20:05.388Z,22.9141
2023-05-05T03:21:03.868Z,22.9007
2023-05-05T03:22:04.953Z,22.9112
2023-05-05T03:23:06.074Z,22.8888
2023-05-05T03:24:07.181Z,22.8245
2023-05-05T03:25:08.258Z,22.8114
2023-05-05T03:26:09.367Z,22.9040
2023-05-05T03:27:10.439Z,22.9344
2023-05-05T03:28:11.534Z,22.8711
2023-05-05T03:29:12.635Z,22.9095
2023-05-05T03:30:13.715Z,22.9354
2023-05-05T03:31:14.850Z,22.9391
2023-05-05T03:32:15.932Z,22.9517
2023-05-05T03:33:17.010Z,22.9601
2023-05-05T03:34:18.100Z,22.9245
2023-05-05T03:35:19.203Z,22.8818
2023-05-05T03:36:20.314Z,22.9114
2023-05-05T03:37:21.404Z,22.8849
2023-05-05T03:38:22.517Z,22.8898
2023-05-05T03:39:23.599Z,22.8802
2023-05-05T03:40:36.334Z,22.8607
2023-05-05T03:41:26.809Z,22.8966
2023-05-05T03:42:26.887Z,22.8890
2023-05-05T03:43:27.976Z,22.9223
2023-05-05T03:44:29.094Z,22.9720
2023-05-05T03:45:30.177Z,22.9149
2023-05-05T03:46:31.297Z,22.9190
2023-05-05T03:47:32.408Z,22.9740
2023-05-05T03:48:33.455Z,23.0044
2023-05-05T03:49:34.549Z,23.0059
2023-05-05T03:50:35.660Z,22.9968
2023-05-05T03:51:36.779Z,22.9529
2023-05-05T03:52:37.852Z,22.9268
2023-05-05T03:53:38.952Z,22.9498
2023-05-05T03:54:40.068Z,22.9009
2023-05-05T03:55:41.124Z,22.9137
2023-05-05T03:56:42.261Z,22.8594
2023-05-05T03:57:43.346Z,22.8442
2023-05-05T03:58:44.424Z,22.8116
2023-05-05T03:59:45.529Z,22.7960
2023-05-05T04:00:46.633Z,22.7910
2023-05-05T04:01:47.745Z,22.8849
2023-05-05T04:02:48.891Z,22.8833
2023-05-05T04:03:49.950Z,22.8611
2023-05-05T04:04:51.014Z,22.8559
2023-05-05T04:05:52.099Z,22.8309
2023-05-05T04:06:53.212Z,22.7789
2023-05-05T04:07:54.338Z,22.7590
2023-05-05T04:08:55.416Z,22.7080
2023-05-05T04:09:56.511Z,22.7522
2023-05-05T04:10:57.626Z,22.8163
2023-05-05T04:11:58.722Z,22.8662
2023-05-05T04:12:59.841Z,22.8976
2023-05-05T04:14:00.896Z,22.8574
2023-05-05T04:15:02.021Z,22.8582
2023-05-05T04:16:03.147Z,22.8251
2023-05-05T04:17:04.212Z,22.8237
2023-05-05T04:18:05.339Z,22.7912
2023-05-05T04:19:06.413Z,22.7604
2023-05-05T04:20:07.692Z,22.7257
2023-05-05T04:21:08.609Z,22.7411
2023-05-05T04:22:09.699Z,22.7834
2023-05-05T04:23:10.787Z,22.7902
2023-05-05T04:24:11.882Z,22.8481
2023-05-05T04:25:13.003Z,22.8761
2023-05-05T04:26:14.080Z,22.9165
2023-05-05T04:27:15.212Z,22.9560
2023-05-05T04:28:16.288Z,22.9862
2023-05-05T04:29:17.370Z,23.0194
2023-05-05T04:30:18.487Z,22.9983
2023-05-05T04:31:19.589Z,23.0166
2023-05-05T04:32:20.698Z,23.0357
2023-05-05T04:33:21.761Z,23.0991
2023-05-05T04:34:22.877Z,23.1677
2023-05-05T04:35:23.949Z,23.1505
2023-05-05T04:36:25.044Z,23.0846
2023-05-05T04:37:26.193Z,23.0993
2023-05-05T04:38:27.296Z,23.0537
2023-05-05T04:39:28.344Z,23.0408
2023-05-05T04:40:29.452Z,23.0581
2023-05-05T04:41:30.571Z,22.9831
2023-05-05T04:42:31.635Z,22.9796
2023-05-05T04:43:32.747Z,22.9763
2023-05-05T04:44:33.832Z,23.0040
2023-05-05T04:45:34.929Z,23.0630
2023-05-05T04:46:36.081Z,23.0272
2023-05-05T04:47:37.156Z,22.9484
2023-05-05T04:48:38.216Z,22.9418
2023-05-05T04:49:39.314Z,22.9816
2023-05-05T04:50:40.421Z,23.0240
2023-05-05T04:51:41.512Z,22.9977
2023-05-05T04:52:42.628Z,23.0034
2023-05-05T04:53:43.702Z,23.0330
2023-05-05T04:54:44.786Z,23.0433
2023-05-05T04:55:45.898Z,23.0985
2023-05-05T04:56:46.975Z,23.1519
2023-05-05T04:57:48.103Z,23.1848
2023-05-05T04:58:49.178Z,23.2185
2023-05-05T04:59:50.272Z,23.2409
2023-05-05T05:00:51.356Z,23.2587
2023-05-05T05:01:52.473Z,23.2618
2023-05-05T05:02:53.611Z,23.2729
2023-05-05T05:03:54.673Z,23.2789
2023-05-05T05:04:55.748Z,23.2822
2023-05-05T05:05:56.832Z,23.2715
2023-05-05T05:06:59.305Z,23.2908
2023-05-05T05:07:59.046Z,23.3046
2023-05-05T05:09:00.156Z,23.3046
2023-05-05T05:10:01.238Z,23.3269
2023-05-05T05:11:02.322Z,23.3571
2023-05-05T05:12:03.447Z,23.3994
2023-05-05T05:13:04.553Z,23.4301
2023-05-05T05:14:05.630Z,23.4522
2023-05-05T05:15:06.731Z,23.4136
2023-05-05T05:16:07.929Z,23.4356
2023-05-05T05:17:08.930Z,23.4344
2023-05-05T05:18:10.043Z,23.4227
2023-05-05T05:19:11.130Z,23.4303
2023-05-05T05:20:12.216Z,23.4005
2023-05-05T05:21:13.319Z,23.4204
2023-05-05T05:22:14.421Z,23.4058
2023-05-05T05:23:15.519Z,23.3881
2023-05-05T05:24:16.642Z,23.3719
2023-05-05T05:25:17.710Z,23.3656
2023-05-05T05:26:18.800Z,23.3980
2023-05-05T05:27:19.912Z,23.4013
2023-05-05T05:28:21.002Z,23.3890
2023-05-05T05:29:22.102Z,23.4029
2023-05-05T05:30:23.200Z,23.4042
2023-05-05T05:31:24.322Z,23.4161
2023-05-05T05:32:25.419Z,23.4469
2023-05-05T05:33:26.517Z,23.4428
2023-05-05T05:34:27.606Z,23.4348
2023-05-05T05:35:28.707Z,23.5110
2023-05-05T05:36:29.820Z,23.5556
2023-05-05T05:37:30.902Z,23.5808
2023-05-05T05:38:32.003Z,23.5925
2023-05-05T05:39:33.102Z,23.5905
2023-05-05T05:40:34.182Z,23.5977
2023-05-05T05:41:35.304Z,23.5627
2023-05-05T05:42:36.374Z,23.5381
2023-05-05T05:43:37.487Z,23.5490
2023-05-05T05:44:38.597Z,23.5527
2023-05-05T05:45:39.727Z,23.5469
2023-05-05T05:46:40.903Z,23.5323
2023-05-05T05:47:41.905Z,23.4989
2023-05-05T05:48:42.957Z,23.4810
2023-05-05T05:49:44.058Z,23.4810
2023-05-05T05:50:45.162Z,23.4935
2023-05-05T05:51:46.264Z,23.5258
2023-05-05T05:52:47.374Z,23.5712
2023-05-05T05:53:48.446Z,23.5673
2023-05-05T05:54:49.551Z,23.5120
2023-05-05T05:55:50.650Z,23.5019
2023-05-05T05:56:51.751Z,23.4800
2023-05-05T05:57:52.854Z,23.4709
2023-05-05T05:58:54.121Z,23.4572
2023-05-05T05:59:55.042Z,23.4440
2023-05-05T06:00:56.154Z,23.4249
2023-05-05T06:01:57.259Z,23.4492
2023-05-05T06:02:58.404Z,23.4987
2023-05-05T06:03:59.496Z,23.5032
2023-05-05T06:05:00.524Z,23.4946
2023-05-05T06:06:01.658Z,23.4808
2023-05-05T06:07:02.724Z,23.4666
2023-05-05T06:08:03.826Z,23.4644
2023-05-05T06:09:04.957Z,23.4654
2023-05-05T06:10:25.190Z,23.4418
2023-05-05T06:11:08.203Z,23.3541
2023-05-05T06:12:08.304Z,23.3549
2023-05-05T06:13:09.427Z,23.3764
2023-05-05T06:14:10.514Z,23.3633
2023-05-05T06:15:11.586Z,23.3541
2023-05-05T06:16:12.746Z,23.3356
2023-05-05T06:17:13.782Z,23.3144
2023-05-05T06:18:14.898Z,23.1905
2023-05-05T06:19:15.990Z,23.1710
2023-05-05T06:20:17.061Z,23.1488
2023-05-05T06:21:18.148Z,23.1684
2023-05-05T06:22:19.247Z,23.1616
2023-05-05T06:23:20.359Z,23.1069
2023-05-05T06:24:21.465Z,23.0702
2023-05-05T06:25:22.539Z,23.0895
2023-05-05T06:26:23.636Z,23.1373
2023-05-05T06:27:24.755Z,23.1223
2023-05-05T06:28:25.825Z,23.1302
2023-05-05T06:29:26.930Z,23.1848
2023-05-05T06:30:28.020Z,23.1517
2023-05-05T06:31:29.178Z,23.1700
2023-05-05T06:32:30.226Z,23.2569
2023-05-05T06:33:31.302Z,23.2542
2023-05-05T06:34:32.446Z,23.3664
2023-05-05T06:35:33.528Z,23.3951
2023-05-05T06:36:34.687Z,23.4635
2023-05-05T06:37:35.716Z,23.5554
2023-05-05T06:38:36.821Z,23.5915
2023-05-05T06:39:37.921Z,23.5991
2023-05-05T06:40:39.009Z,23.6833
2023-05-05T06:41:40.097Z,23.7014
2023-05-05T06:42:41.194Z,23.7176
2023-05-05T06:43:42.286Z,23.7078
2023-05-05T06:44:43.396Z,23.6930
2023-05-05T06:45:44.507Z,23.7020
2023-05-05T06:46:45.611Z,23.6909
2023-05-05T06:47:46.723Z,23.5860
2023-05-05T06:48:47.811Z,23.6283
2023-05-05T06:49:48.896Z,23.6755
2023-05-05T06:50:49.982Z,23.6714
2023-05-05T06:51:51.085Z,23.6463
2023-05-05T06:52:52.175Z,23.7014
2023-05-05T06:53:53.274Z,23.7306
2023-05-05T06:54:54.379Z,23.7404
2023-05-05T06:55:55.464Z,23.8140
2023-05-05T06:56:59.331Z,23.8666
2023-05-05T06:57:57.700Z,23.8869
2023-05-05T06:58:58.771Z,23.9415
2023-05-05T07:00:00.004Z,23.9775
2023-05-05T07:01:01.025Z,23.9690
2023-05-05T07:02:02.079Z,23.9524
2023-05-05T07:03:03.212Z,23.9711
2023-05-05T07:04:04.357Z,23.9504
2023-05-05T07:05:05.348Z,23.9594
2023-05-05T07:06:06.464Z,23.9898
2023-05-05T07:07:07.549Z,24.0144
2023-05-05T07:08:08.645Z,24.0333
2023-05-05T07:09:09.777Z,24.0282
2023-05-05T07:10:10.939Z,24.0001
2023-05-05T07:11:11.983Z,23.8844
2023-05-05T07:12:13.064Z,23.8690
2023-05-05T07:13:14.229Z,23.9031
2023-05-05T07:14:15.273Z,23.8852
2023-05-05T07:15:26.737Z,23.9134
2023-05-05T07:16:18.470Z,23.9666
2023-05-05T07:17:18.552Z,23.9744
2023-05-05T07:18:19.652Z,24.0134
2023-05-05T07:19:20.757Z,24.0294
2023-05-05T07:20:21.869Z,24.0656
2023-05-05T07:21:22.968Z,24.0946
2023-05-05T07:22:24.077Z,24.1239
2023-05-05T07:23:25.145Z,24.0814
2023-05-05T07:24:26.242Z,24.0701
2023-05-05T07:25:27.364Z,23.9808
2023-05-05T07:26:28.439Z,23.9713
2023-05-05T07:27:29.546Z,23.9875
2023-05-05T07:28:30.631Z,23.9789
2023-05-05T07:29:31.738Z,24.0068
2023-05-05T07:30:32.880Z,24.0021
2023-05-05T07:31:33.949Z,23.9417
2023-05-05T07:32:35.027Z,23.9923
2023-05-05T07:33:36.135Z,24.0122
2023-05-05T07:34:37.477Z,24.0621
2023-05-05T07:35:38.309Z,24.0968
2023-05-05T07:36:39.408Z,24.0923
2023-05-05T07:37:40.492Z,24.0473
2023-05-05T07:38:41.601Z,23.9300
2023-05-05T07:39:42.716Z,23.7394
2023-05-05T07:40:43.813Z,23.7981
2023-05-05T07:41:44.895Z,23.7326
2023-05-05T07:42:45.988Z,23.6689
2023-05-05T07:43:47.089Z,23.6876
2023-05-05T07:44:48.193Z,23.5767
2023-05-05T07:45:49.342Z,23.6010
2023-05-05T07:46:50.357Z,23.5391
2023-05-05T07:47:51.481Z,23.5371
2023-05-05T07:48:52.556Z,23.5508
2023-05-05T07:49:53.638Z,23.5459
2023-05-05T07:50:54.769Z,23.4884
2023-05-05T07:51:55.863Z,23.4590
2023-05-05T07:53:06.215Z,23.3606
2023-05-05T07:53:59.037Z,23.4027
2023-05-05T07:54:59.143Z,23.3978
2023-05-05T07:56:00.269Z,23.4183
2023-05-05T07:57:01.349Z,23.3945
2023-05-05T07:58:02.434Z,23.4245
2023-05-05T07:59:03.555Z,23.3898
2023-05-05T08:00:04.765Z,23.3680
2023-05-05T08:01:05.912Z,23.3380
2023-05-05T08:02:06.924Z,23.2540
2023-05-05T08:03:11.307Z,23.3105
2023-05-05T08:04:09.092Z,23.3144
2023-05-05T08:05:10.264Z,23.2906
2023-05-05T08:06:11.310Z,23.2400
2023-05-05T08:07:12.324Z,23.2474
2023-05-05T08:08:13.418Z,23.2739
2023-05-05T08:09:14.539Z,23.3994
2023-05-05T08:10:15.610Z,23.4551
2023-05-05T08:11:16.722Z,23.5143
2023-05-05T08:12:17.875Z,23.5968
2023-05-05T08:13:19.004Z,23.5757
2023-05-05T08:14:20.037Z,23.4775
2023-05-05T08:15:21.090Z,23.4107
2023-05-05T08:16:22.289Z,23.4128
2023-05-05T08:17:23.310Z,23.5504
2023-05-05T08:18:24.378Z,23.5122
2023-05-05T08:19:29.250Z,23.3633
2023-05-05T08:20:26.564Z,23.3592
2023-05-05T08:21:27.680Z,23.3890
2023-05-05T08:22:28.740Z,23.3555
2023-05-05T08:23:29.842Z,23.3249
2023-05-05T08:24:30.939Z,23.2294
2023-05-05T08:25:32.073Z,23.1677
2023-05-05T08:26:33.157Z,23.1794
2023-05-05T08:27:34.250Z,23.3048
2023-05-05T08:28:35.354Z,23.4313
2023-05-05T08:29:36.429Z,23.3888
2023-05-05T08:30:37.559Z,23.3109
2023-05-05T08:31:38.910Z,23.3442
2023-05-05T08:32:39.813Z,23.2918
2023-05-05T08:33:40.840Z,23.2294
2023-05-05T08:34:41.927Z,23.1825
2023-05-05T08:35:43.038Z,23.1840
2023-05-05T08:36:44.166Z,23.2164
2023-05-05T08:37:45.233Z,23.3050
2023-05-05T08:38:46.350Z,23.3617
2023-05-05T08:39:47.453Z,23.3968
2023-05-05T08:40:48.541Z,23.3124
2023-05-05T08:41:49.644Z,23.2877
2023-05-05T08:42:50.747Z,23.2476
2023-05-05T08:43:51.826Z,23.2193
2023-05-05T08:44:52.942Z,23.2914
2023-05-05T08:45:54.044Z,23.2707
2023-05-05T08:46:55.229Z,23.2027
2023-05-05T08:47:56.275Z,23.1375
2023-05-05T08:48:57.334Z,23.1967
2023-05-05T08:49:58.438Z,23.2294
2023-05-05T08:51:00.791Z,23.2949
2023-05-05T08:52:00.638Z,23.2898
2023-05-05T08:53:01.760Z,23.3962
2023-05-05T08:54:02.811Z,23.5360
2023-05-05T08:55:03.917Z,23.5786
2023-05-05T08:56:05.024Z,23.6435
2023-05-05T08:57:06.141Z,23.6410
2023-05-05T08:58:07.236Z,23.6030
2023-05-05T08:59:08.319Z,23.5761
2023-05-05T09:00:09.419Z,23.5373
2023-05-05T09:01:10.624Z,23.5102
2023-05-05T09:02:11.776Z,23.6120
2023-05-05T09:03:12.842Z,23.6726
2023-05-05T09:04:13.800Z,23.6657
2023-05-05T09:05:14.908Z,23.7263
2023-05-05T09:06:16.003Z,23.7076
2023-05-05T09:07:17.102Z,23.6936
2023-05-05T09:08:18.183Z,23.7577
2023-05-05T09:09:19.280Z,23.7004
2023-05-05T09:10:20.374Z,23.7624
2023-05-05T09:11:21.479Z,23.7959
2023-05-05T09:12:22.579Z,23.8479
2023-05-05T09:13:23.660Z,23.8889
2023-05-05T09:14:24.780Z,23.8764
2023-05-05T09:15:25.869Z,23.9144
2023-05-05T09:16:26.978Z,23.8111
2023-05-05T09:17:28.145Z,23.8598
2023-05-05T09:18:29.129Z,23.8509
2023-05-05T09:19:30.220Z,23.8388
2023-05-05T09:20:31.316Z,23.8388
2023-05-05T09:21:32.474Z,23.8922
2023-05-05T09:22:33.527Z,23.9269
2023-05-05T09:23:34.613Z,23.9656
2023-05-05T09:24:35.706Z,23.9773
2023-05-05T09:25:36.800Z,24.0134
2023-05-05T09:26:37.915Z,24.0609
2023-05-05T09:27:39.016Z,24.0403
2023-05-05T09:28:40.101Z,24.0366
2023-05-05T09:29:41.256Z,24.0711
2023-05-05T09:30:42.339Z,24.0588
2023-05-05T09:31:43.410Z,24.0964
2023-05-05T09:32:44.670Z,24.1219
2023-05-05T09:33:45.600Z,24.1578
2023-05-05T09:34:46.675Z,24.2414
2023-05-05T09:35:47.783Z,24.3221
2023-05-05T09:36:48.916Z,24.3530
2023-05-05T09:37:49.994Z,24.3400
2023-05-05T09:38:51.071Z,24.2780
2023-05-05T09:39:52.179Z,24.1983
2023-05-05T09:40:53.272Z,24.1831
2023-05-05T09:41:54.379Z,24.1985
2023-05-05T09:42:55.474Z,24.2527
2023-05-05T09:43:56.565Z,24.3069
2023-05-05T09:44:59.679Z,24.3316
2023-05-05T09:45:58.819Z,24.3573
2023-05-05T09:46:59.876Z,24.3634
2023-05-05T09:48:01.176Z,24.4004
2023-05-05T09:49:02.070Z,24.4177
2023-05-05T09:50:03.160Z,24.4448
2023-05-05T09:51:04.256Z,24.4883
2023-05-05T09:52:05.379Z,24.5095
2023-05-05T09:53:06.451Z,24.4873
2023-05-05T09:54:07.575Z,24.4875
2023-05-05T09:55:08.657Z,24.5062
2023-05-05T09:56:09.753Z,24.4967
2023-05-05T09:57:10.836Z,24.4690
2023-05-05T09:58:11.972Z,24.4633
2023-05-05T09:59:13.054Z,24.4750
2023-05-05T10:00:14.150Z,24.4947
2023-05-05T10:01:15.258Z,24.4717
2023-05-05T10:02:16.352Z,24.4629
2023-05-05T10:03:17.515Z,24.4840
2023-05-05T10:04:18.535Z,24.5115
2023-05-05T10:05:19.680Z,24.5325
2023-05-05T10:06:20.728Z,24.5399
2023-05-05T10:07:21.831Z,24.5633
2023-05-05T10:08:22.915Z,24.5863
2023-05-05T10:09:24.026Z,24.5873
2023-05-05T10:10:26.903Z,24.5557
2023-05-05T10:11:26.296Z,24.5600
2023-05-05T10:12:27.400Z,24.5927
2023-05-05T10:13:28.505Z,24.5697
2023-05-05T10:14:29.576Z,24.5487
2023-05-05T10:15:30.655Z,24.5126
2023-05-05T10:16:31.849Z,24.5019
2023-05-05T10:17:32.921Z,24.4957
2023-05-05T10:18:34.032Z,24.4937
2023-05-05T10:19:35.066Z,24.4725
2023-05-05T10:20:36.195Z,24.4392
2023-05-05T10:21:37.234Z,24.4242
2023-05-05T10:22:38.324Z,24.3908
2023-05-05T10:23:39.427Z,24.3468
2023-05-05T10:24:40.529Z,24.3189
2023-05-05T10:25:41.623Z,24.3240
2023-05-05T10:26:42.725Z,24.3413
2023-05-05T10:27:43.818Z,24.3287
2023-05-05T10:28:44.963Z,24.3318
2023-05-05T10:29:46.035Z,24.3392
2023-05-05T10:30:47.098Z,24.3515
2023-05-05T10:31:48.215Z,24.3517
2023-05-05T10:32:54.389Z,24.3464
2023-05-05T10:33:51.586Z,24.3433
2023-05-05T10:34:51.487Z,24.3141
2023-05-05T10:35:52.593Z,24.3008
2023-05-05T10:36:53.703Z,24.3109
2023-05-05T10:37:54.806Z,24.3006
2023-05-05T10:38:55.903Z,24.2913
2023-05-05T10:39:56.967Z,24.3230
2023-05-05T10:40:58.063Z,24.3700
2023-05-05T10:41:59.191Z,24.3994
2023-05-05T10:43:00.271Z,24.4347
2023-05-05T10:44:04.284Z,24.4668
2023-05-05T10:45:02.501Z,24.4538
2023-05-05T10:46:03.590Z,24.4035
2023-05-05T10:47:04.668Z,24.3727
2023-05-05T10:48:05.811Z,24.3435
2023-05-05T10:49:06.859Z,24.3090
2023-05-05T10:50:08.190Z,24.2897
2023-05-05T10:51:09.056Z,24.3390
2023-05-05T10:52:10.129Z,24.3690
2023-05-05T10:53:11.271Z,24.3717
2023-05-05T10:54:12.391Z,24.3359
2023-05-05T10:55:13.484Z,24.3497
2023-05-05T10:56:14.528Z,24.3749
2023-05-05T10:57:15.635Z,24.3836
2023-05-05T10:58:16.713Z,24.4199
2023-05-05T10:59:17.811Z,24.4834
2023-05-05T11:00:18.918Z,24.5600
2023-05-05T11:01:20.050Z,24.5916
2023-05-05T11:02:21.130Z,24.6064
2023-05-05T11:03:22.383Z,24.6457
2023-05-05T11:04:23.460Z,24.7034
2023-05-05T11:05:24.387Z,24.7067
2023-05-05T11:06:25.490Z,24.6828
2023-05-05T11:07:26.574Z,24.7291
2023-05-05T11:08:27.690Z,24.8100
2023-05-05T11:09:28.897Z,24.8800
2023-05-05T11:10:29.875Z,24.9160
2023-05-05T11:11:30.968Z,24.9764
2023-05-05T11:12:32.150Z,25.0064
2023-05-05T11:13:33.168Z,25.0322
2023-05-05T11:14:34.290Z,25.0355
2023-05-05T11:15:35.435Z,25.0737
2023-05-05T11:16:36.473Z,25.1317
2023-05-05T11:17:37.538Z,25.1602
2023-05-05T11:18:38.663Z,25.2194
2023-05-05T11:19:39.852Z,25.3494
2023-05-05T11:20:40.837Z,25.5154
2023-05-05T11:21:41.910Z,25.6787
2023-05-05T11:22:43.020Z,25.8212
2023-05-05T11:23:44.116Z,25.9133
2023-05-05T11:24:45.227Z,26.0710
2023-05-05T11:25:46.314Z,26.1517
2023-05-05T11:26:47.427Z,26.2175
2023-05-05T11:27:48.496Z,26.2392
2023-05-05T11:28:49.601Z,26.1589
2023-05-05T11:29:52.051Z,26.0794
2023-05-05T11:30:51.839Z,26.1156
2023-05-05T11:31:52.878Z,26.1706
2023-05-05T11:32:54.085Z,26.3442
2023-05-05T11:33:55.087Z,26.4350
2023-05-05T11:34:56.265Z,26.5264
2023-05-05T11:35:57.286Z,26.6166
2023-05-05T11:36:58.376Z,26.6624
2023-05-05T11:37:59.471Z,26.5973
2023-05-05T11:39:00.570Z,26.6761
2023-05-05T11:40:01.696Z,26.7119
2023-05-05T11:41:02.779Z,26.7754
2023-05-05T11:42:09.410Z,26.7585
2023-05-05T11:43:05.976Z,26.5702
2023-05-05T11:44:06.068Z,26.4913
2023-05-05T11:45:07.163Z,26.3830
2023-05-05T11:46:08.306Z,26.3695
2023-05-05T11:47:09.354Z,26.4005
2023-05-05T11:48:10.457Z,26.5030
2023-05-05T11:49:11.532Z,26.5381
2023-05-05T11:50:12.738Z,26.5313
2023-05-05T11:51:13.729Z,26.4514
2023-05-05T11:52:14.873Z,26.3629
2023-05-05T11:53:15.918Z,26.3056
2023-05-05T11:54:17.025Z,26.2990
2023-05-05T11:55:18.123Z,26.2201
2023-05-05T11:56:19.446Z,26.1903
2023-05-05T11:57:20.322Z,26.2084
2023-05-05T11:58:21.410Z,26.1361
2023-05-05T11:59:22.513Z,25.9322
2023-05-05T12:00:23.610Z,25.7857
2023-05-05T12:01:24.705Z,25.7471
2023-05-05T12:02:25.839Z,25.7366
2023-05-05T12:03:27.144Z,25.6721
2023-05-05T12:04:28.037Z,25.6394
2023-05-05T12:05:29.194Z,25.5827
2023-05-05T12:06:30.212Z,25.5306
2023-05-05T12:07:31.309Z,25.5573
2023-05-05T12:08:32.394Z,25.5729
2023-05-05T12:09:33.476Z,25.5641
2023-05-05T12:10:34.600Z,25.5934
2023-05-05T12:11:35.746Z,25.6764
2023-05-05T12:12:36.792Z,25.6918
2023-05-05T12:13:37.863Z,25.7571
2023-05-05T12:14:38.962Z,25.7904
2023-05-05T12:15:40.072Z,25.8596
2023-05-05T12:16:41.335Z,25.8714
2023-05-05T12:17:42.317Z,25.8278
2023-05-05T12:18:43.370Z,25.8463